Time;durP1;ratioP1;P1;durP2;ratioP2;P2;SDS_P1;SDS_P2;PMS_P1;PMS_P2;Temp;Humidity;BMP_temperature;BMP_pressure;BME280_temperature;BME280_humidity;BME280_pressure;Samples;Min_cycle;Max_cycle;Signal;HPM_P1;HPM_P2
2023/01/25 00:00:16;;;;;;;13.43;8.27;;;7.90;72.40;7.80;97841.00;;;;5048516;28;20204;-77
2023/01/25 00:02:46;;;;;;;13.30;7.53;;;7.90;72.30;7.80;97840.00;;;;5050437;28;20255;-78
2023/01/25 00:05:13;;;;;;;13.27;7.57;;;8.00;72.30;7.80;97841.00;;;;5049501;28;20212;-78
2023/01/25 00:07:40;;;;;;;13.23;7.67;;;7.90;72.30;7.80;97837.00;;;;5051907;28;20258;-78
2023/01/25 00:10:09;;;;;;;12.40;7.97;;;7.90;73.00;7.80;97838.00;;;;5046387;28;20281;-77
2023/01/25 00:12:37;;;;;;;10.40;7.73;;;8.00;72.30;7.80;97842.00;;;;5041216;28;20284;-78
2023/01/25 00:15:19;;;;;;;11.83;8.43;;;7.90;72.30;7.80;97846.00;;;;5053433;28;20272;-77
2023/01/25 00:17:51;;;;;;;16.67;8.40;;;7.90;72.40;7.80;97844.00;;;;5052481;28;20224;-78
2023/01/25 00:20:28;;;;;;;14.70;8.23;;;7.90;72.20;7.70;97844.00;;;;5052852;28;20220;-78
2023/01/25 00:22:57;;;;;;;14.20;9.23;;;7.90;72.20;7.70;97844.00;;;;5059145;28;20607;-78
2023/01/25 00:25:30;;;;;;;13.93;7.67;;;7.90;72.20;7.70;97843.00;;;;5053066;28;20217;-78
2023/01/25 00:28:06;;;;;;;12.40;8.30;;;7.90;72.30;7.70;97849.00;;;;5052545;28;20242;-78
2023/01/25 00:30:50;;;;;;;13.60;8.70;;;7.90;72.30;7.70;97841.00;;;;5054785;28;20550;-78
2023/01/25 00:33:53;;;;;;;12.20;7.37;;;7.90;72.30;7.70;97836.00;;;;5048550;28;20203;-78
2023/01/25 00:39:25;;;;;;;11.20;7.63;;;7.90;72.10;7.60;97835.00;;;;5032115;28;20200;-76
2023/01/25 00:41:59;;;;;;;21.70;7.67;;;7.90;71.90;7.60;97839.00;;;;5051383;28;20217;-78
2023/01/25 00:44:26;;;;;;;10.63;7.50;;;7.90;72.00;7.60;97843.00;;;;5054766;28;20223;-77
2023/01/25 00:47:00;;;;;;;12.80;8.17;;;7.90;72.10;7.60;97842.00;;;;5048720;28;20192;-78
2023/01/25 00:49:30;;;;;;;14.93;8.37;;;7.80;72.10;7.60;97842.00;;;;5048485;28;20193;-77
2023/01/25 00:51:58;;;;;;;15.00;7.83;;;7.80;72.00;7.60;97839.00;;;;5047094;28;20239;-78
2023/01/25 00:54:26;;;;;;;12.57;7.13;;;7.70;72.00;7.60;97835.00;;;;5051095;28;20201;-78
2023/01/25 00:56:55;;;;;;;9.30;7.00;;;7.80;72.10;7.60;97832.00;;;;5055057;28;20235;-78
2023/01/25 00:59:23;;;;;;;10.50;7.93;;;7.80;72.10;7.60;97829.00;;;;5049968;28;20219;-78
2023/01/25 01:02:24;;;;;;;17.03;7.77;;;7.80;72.00;7.60;97832.00;;;;5051008;28;20276;-79
2023/01/25 01:04:59;;;;;;;10.10;7.27;;;7.80;72.20;7.50;97830.00;;;;5048697;28;20200;-78
2023/01/25 01:07:28;;;;;;;9.90;7.10;;;7.80;72.00;7.50;97835.00;;;;5050496;28;20204;-78
2023/01/25 01:09:58;;;;;;;10.37;7.13;;;7.80;72.00;7.50;97824.00;;;;5052015;28;20200;-78
2023/01/25 01:12:25;;;;;;;12.43;7.87;;;7.70;72.00;7.50;97830.00;;;;5049059;28;20459;-77
2023/01/25 01:14:55;;;;;;;14.80;7.83;;;7.80;72.00;7.50;97822.00;;;;5051277;28;20228;-79
2023/01/25 01:17:34;;;;;;;12.77;7.47;;;7.70;72.00;7.50;97825.00;;;;5066288;28;20223;-79
2023/01/25 01:20:01;;;;;;;13.17;8.37;;;7.80;72.20;7.50;97833.00;;;;5055038;28;20661;-79
2023/01/25 01:22:28;;;;;;;13.20;8.13;;;7.70;72.00;7.50;97825.00;;;;5048873;28;20212;-78
2023/01/25 01:24:56;;;;;;;10.67;7.47;;;7.70;71.80;7.50;97824.00;;;;5055489;28;20224;-79
2023/01/25 01:27:30;;;;;;;11.97;6.83;;;7.70;71.90;7.40;97815.00;;;;5056519;28;20910;-77
2023/01/25 01:29:58;;;;;;;12.20;7.97;;;7.70;71.90;7.40;97821.00;;;;5047556;28;20223;-78
2023/01/25 01:32:29;;;;;;;13.60;7.90;;;7.70;71.90;7.40;97832.00;;;;5054096;28;20242;-77
2023/01/25 01:35:01;;;;;;;13.17;7.87;;;7.70;71.90;7.40;97827.00;;;;5056423;28;20302;-78
2023/01/25 01:37:38;;;;;;;10.70;7.43;;;7.70;71.90;7.40;97825.00;;;;5057436;28;20224;-80
2023/01/25 01:40:16;;;;;;;11.57;7.13;;;7.70;71.90;7.40;97825.00;;;;5058176;28;20223;-79
2023/01/25 01:43:20;;;;;;;10.17;7.13;;;7.60;72.00;7.40;97814.00;;;;5064029;28;20696;-79
2023/01/25 01:45:58;;;;;;;12.43;7.77;;;7.70;72.20;7.40;97820.00;;;;5049966;28;20220;-78
2023/01/25 01:48:38;;;;;;;12.80;7.73;;;7.60;72.00;7.40;97823.00;;;;5057840;28;20239;-79
2023/01/25 01:51:19;;;;;;;10.57;7.17;;;7.60;72.00;7.40;97820.00;;;;5056917;28;20762;-78
2023/01/25 01:53:52;;;;;;;11.20;7.43;;;7.60;72.00;7.40;97809.00;;;;5057227;28;20256;-78
2023/01/25 01:56:26;;;;;;;10.70;7.53;;;7.60;72.00;7.40;97813.00;;;;5054429;28;20212;-78
2023/01/25 01:58:55;;;;;;;14.43;8.43;;;7.60;71.90;7.30;97813.00;;;;5055153;28;20192;-77
2023/01/25 02:01:23;;;;;;;11.97;7.70;;;7.60;71.70;7.30;97815.00;;;;5053070;28;20244;-78
2023/01/25 02:03:53;;;;;;;13.80;7.63;;;7.60;71.80;7.30;97817.00;;;;5036758;28;20213;-78
2023/01/25 02:06:36;;;;;;;13.47;8.00;;;7.60;71.90;7.30;97817.00;;;;5052174;28;20263;-79
2023/01/25 02:09:03;;;;;;;11.40;7.13;;;7.60;71.90;7.30;97823.00;;;;5041360;28;20196;-79
2023/01/25 02:11:35;;;;;;;11.13;7.27;;;7.60;72.00;7.30;97824.00;;;;5052586;28;20220;-78
2023/01/25 02:14:04;;;;;;;17.20;8.27;;;7.50;72.00;7.30;97825.00;;;;5048411;28;20572;-79
2023/01/25 02:16:31;;;;;;;15.47;7.97;;;7.50;72.00;7.30;97818.00;;;;5051225;28;20192;-79
2023/01/25 02:19:02;;;;;;;10.73;8.10;;;7.50;72.30;7.30;97813.00;;;;5053069;28;20232;-79
2023/01/25 02:21:43;;;;;;;10.67;7.27;;;7.60;72.00;7.30;97815.00;;;;5054257;28;20736;-79
2023/01/25 02:24:20;;;;;;;11.30;7.37;;;7.60;72.00;7.30;97823.00;;;;5038690;28;20220;-78
2023/01/25 02:26:49;;;;;;;11.40;7.50;;;7.50;71.90;7.30;97821.00;;;;5053362;28;20251;-79
2023/01/25 02:29:19;;;;;;;13.23;7.97;;;7.50;71.80;7.30;97815.00;;;;5039619;28;20232;-77
2023/01/25 02:31:51;;;;;;;10.93;7.53;;;7.60;72.00;7.20;97818.00;;;;5054130;28;20677;-77
2023/01/25 02:34:20;;;;;;;10.20;7.27;;;7.50;71.80;7.20;97813.00;;;;5054514;28;20224;-77
2023/01/25 02:36:56;;;;;;;12.30;7.77;;;7.50;71.80;7.20;97815.00;;;;5047028;28;20654;-79
2023/01/25 02:39:28;;;;;;;10.47;7.00;;;7.50;71.70;7.20;97810.00;;;;5039807;28;20207;-78
2023/01/25 02:42:02;;;;;;;11.83;8.00;;;7.50;71.80;7.20;97817.00;;;;5047323;28;20247;-79
2023/01/25 02:44:32;;;;;;;25.37;7.67;;;7.50;71.90;7.20;97813.00;;;;5044128;28;20215;-78
2023/01/25 02:46:59;;;;;;;12.07;7.83;;;7.40;71.90;7.20;97813.00;;;;5050196;28;20723;-79
2023/01/25 02:49:27;;;;;;;11.37;7.23;;;7.40;71.90;7.10;97812.00;;;;5054546;28;20189;-78
2023/01/25 02:51:56;;;;;;;12.20;7.67;;;7.40;71.90;7.10;97818.00;;;;5055063;28;20208;-78
2023/01/25 02:54:25;;;;;;;10.60;7.40;;;7.40;72.00;7.10;97807.00;;;;5055016;28;20228;-78
2023/01/25 02:56:57;;;;;;;11.00;7.80;;;7.40;72.00;7.10;97819.00;;;;5050556;28;20212;-78
2023/01/25 02:59:32;;;;;;;30.23;8.67;;;7.40;72.00;7.10;97803.00;;;;5052264;28;20609;-78
2023/01/25 03:02:02;;;;;;;16.43;7.60;;;7.40;72.10;7.10;97806.00;;;;5051349;28;20315;-77
2023/01/25 03:04:32;;;;;;;16.97;8.53;;;7.30;72.00;7.10;97798.00;;;;5052019;28;20258;-78
2023/01/25 03:07:03;;;;;;;13.27;8.20;;;7.30;72.10;7.10;97804.00;;;;5045248;28;20283;-78
2023/01/25 03:09:35;;;;;;;13.20;8.33;;;7.40;72.30;7.10;97800.00;;;;5058605;28;20200;-79
2023/01/25 03:12:11;;;;;;;11.43;7.40;;;7.40;72.30;7.10;97801.00;;;;5047625;28;20263;-79
2023/01/25 03:14:45;;;;;;;13.27;7.73;;;7.40;72.10;7.10;97804.00;;;;5056817;28;20641;-79
2023/01/25 03:17:14;;;;;;;11.43;7.40;;;7.40;72.00;7.10;97802.00;;;;5054125;28;20193;-79
2023/01/25 03:19:49;;;;;;;10.50;6.87;;;7.30;72.00;7.00;97803.00;;;;5052416;28;20225;-79
2023/01/25 03:22:22;;;;;;;13.00;7.40;;;7.30;71.90;7.00;97803.00;;;;5055297;28;20240;-79
2023/01/25 03:24:56;;;;;;;9.70;6.93;;;7.30;72.00;7.00;97799.00;;;;5045830;28;20310;-78
2023/01/25 03:27:23;;;;;;;13.83;8.03;;;7.30;71.90;7.00;97806.00;;;;5043556;28;20196;-79
2023/01/25 03:29:51;;;;;;;11.00;7.30;;;7.30;71.90;7.00;97797.00;;;;5056477;28;20634;-79
2023/01/25 03:32:19;;;;;;;12.03;7.97;;;7.30;72.00;7.00;97801.00;;;;5052226;28;20566;-79
2023/01/25 03:34:49;;;;;;;11.37;8.27;;;7.30;72.00;7.00;97794.00;;;;5052847;28;20239;-79
2023/01/25 03:37:18;;;;;;;11.87;8.17;;;7.30;72.00;7.00;97795.00;;;;5043983;28;20244;-78
2023/01/25 03:39:50;;;;;;;18.77;9.53;;;7.30;72.00;7.00;97785.00;;;;5044349;28;20670;-78
2023/01/25 03:42:25;;;;;;;13.23;7.93;;;7.30;72.10;7.00;97795.00;;;;5055141;28;20221;-80
2023/01/25 03:44:53;;;;;;;14.50;7.90;;;7.30;72.10;7.00;97791.00;;;;5050009;28;20203;-78
2023/01/25 03:47:23;;;;;;;16.83;8.90;;;7.30;72.10;7.00;97794.00;;;;5052350;28;20196;-79
2023/01/25 03:49:59;;;;;;;12.87;7.73;;;7.30;72.10;7.00;97789.00;;;;5054690;28;20263;-78
2023/01/25 03:52:27;;;;;;;10.63;7.13;;;7.30;72.10;7.00;97796.00;;;;5053408;28;20255;-78
2023/01/25 03:54:54;;;;;;;11.53;7.23;;;7.30;72.00;7.00;97790.00;;;;5052098;28;20201;-78
2023/01/25 03:57:21;;;;;;;11.47;7.47;;;7.20;71.90;7.00;97784.00;;;;5063831;28;20231;-79
2023/01/25 03:59:48;;;;;;;14.47;7.63;;;7.20;72.00;7.00;97786.00;;;;5058563;28;20225;-78
2023/01/25 04:02:17;;;;;;;20.93;7.93;;;7.20;72.10;7.00;97784.00;;;;5050737;28;20266;-77
2023/01/25 04:04:55;;;;;;;9.70;7.27;;;7.30;72.30;7.00;97775.00;;;;5054829;28;20645;-79
2023/01/25 04:07:23;;;;;;;14.90;7.67;;;7.30;72.30;7.00;97776.00;;;;5054389;28;20181;-78
2023/01/25 04:09:50;;;;;;;26.67;8.70;;;7.30;72.30;7.00;97773.00;;;;5049125;28;20247;-79
2023/01/25 04:12:17;;;;;;;25.00;8.67;;;7.30;72.30;7.00;97769.00;;;;5050763;28;20269;-78
2023/01/25 04:14:46;;;;;;;13.80;8.33;;;7.20;72.20;7.00;97758.00;;;;5054448;28;20657;-79
2023/01/25 04:17:13;;;;;;;17.23;8.20;;;7.30;72.30;7.00;97762.00;;;;5050934;28;20236;-78
2023/01/25 04:19:44;;;;;;;14.70;8.53;;;7.30;72.30;7.10;97756.00;;;;5052258;28;20211;-78
2023/01/25 04:22:11;;;;;;;21.13;8.47;;;7.30;72.20;7.10;97759.00;;;;5052603;28;20290;-78
2023/01/25 04:24:40;;;;;;;16.70;7.87;;;7.30;72.20;7.00;97754.00;;;;5051408;28;20737;-77
2023/01/25 04:27:08;;;;;;;12.80;8.10;;;7.30;72.30;7.10;97751.00;;;;5042232;28;20292;-78
2023/01/25 04:29:36;;;;;;;10.50;7.40;;;7.30;72.20;7.10;97747.00;;;;5046462;28;20227;-77
2023/01/25 04:32:23;;;;;;;11.97;7.67;;;7.30;72.10;7.00;97747.00;;;;5052765;28;20258;-77
2023/01/25 04:35:00;;;;;;;15.57;7.70;;;7.30;72.10;7.00;97746.00;;;;5044228;28;20230;-77
2023/01/25 04:37:33;;;;;;;13.40;7.30;;;7.30;72.20;7.00;97743.00;;;;5065020;28;20196;-78
2023/01/25 04:40:10;;;;;;;14.63;7.83;;;7.30;72.00;7.00;97747.00;;;;5051059;28;20623;-76
2023/01/25 04:42:42;;;;;;;18.33;7.50;;;7.30;71.90;7.00;97742.00;;;;5053045;28;20231;-76
2023/01/25 04:45:15;;;;;;;12.13;7.70;;;7.30;71.80;7.00;97748.00;;;;5044298;28;20193;-77
2023/01/25 04:47:42;;;;;;;12.27;7.63;;;7.30;71.80;7.00;97745.00;;;;5047110;28;20222;-76
2023/01/25 04:50:11;;;;;;;10.23;7.00;;;7.20;71.70;6.90;97737.00;;;;5048852;28;20201;-77
2023/01/25 04:52:38;;;;;;;14.27;7.87;;;7.20;71.70;6.90;97744.00;;;;5048609;28;20596;-76
2023/01/25 04:55:06;;;;;;;16.87;8.27;;;7.20;71.90;6.90;97744.00;;;;5052784;28;20220;-77
2023/01/25 04:57:34;;;;;;;13.30;8.03;;;7.20;71.90;7.00;97741.00;;;;5048371;28;20197;-77
2023/01/25 05:00:02;;;;;;;12.53;8.00;;;7.20;72.00;7.00;97738.00;;;;5053043;28;20196;-77
2023/01/25 05:02:29;;;;;;;17.77;8.03;;;7.20;72.00;6.90;97731.00;;;;5054317;28;20212;-77
2023/01/25 05:04:56;;;;;;;12.03;7.63;;;7.20;72.00;6.90;97737.00;;;;5055154;28;20200;-76
2023/01/25 05:07:25;;;;;;;15.07;7.73;;;7.20;72.10;6.90;97730.00;;;;5055038;28;20267;-78
2023/01/25 05:09:52;;;;;;;12.40;7.30;;;7.20;72.10;6.90;97723.00;;;;5053287;28;20692;-78
2023/01/25 05:12:19;;;;;;;11.97;7.63;;;7.20;72.10;6.90;97734.00;;;;5054056;28;20341;-79
2023/01/25 05:14:47;;;;;;;13.47;7.23;;;7.20;72.10;6.90;97729.00;;;;5034611;28;20229;-78
2023/01/25 05:17:15;;;;;;;16.30;7.40;;;7.20;72.20;6.90;97726.00;;;;5055348;28;20284;-78
2023/01/25 05:19:42;;;;;;;12.40;7.70;;;7.20;72.20;6.90;97727.00;;;;5054298;28;20547;-77
2023/01/25 05:22:15;;;;;;;11.13;7.30;;;7.20;72.20;6.90;97732.00;;;;5053855;28;20266;-77
2023/01/25 05:24:44;;;;;;;9.73;7.40;;;7.20;72.00;6.90;97735.00;;;;5052935;28;20693;-78
2023/01/25 05:27:14;;;;;;;13.23;7.53;;;7.20;71.90;6.90;97729.00;;;;5054419;28;20240;-78
2023/01/25 05:29:43;;;;;;;15.83;7.30;;;7.20;71.90;6.90;97731.00;;;;5053477;28;20201;-77
2023/01/25 05:32:14;;;;;;;12.60;7.97;;;7.10;71.90;6.90;97717.00;;;;5054250;28;20282;-78
2023/01/25 05:34:47;;;;;;;10.93;7.23;;;7.10;72.00;6.90;97713.00;;;;5049688;28;20590;-77
2023/01/25 05:37:17;;;;;;;15.83;7.03;;;7.10;72.00;6.90;97720.00;;;;5051263;28;20284;-77
2023/01/25 05:39:46;;;;;;;12.57;6.57;;;7.10;72.00;6.90;97716.00;;;;5044137;28;20598;-78
2023/01/25 05:42:16;;;;;;;9.67;6.93;;;7.10;72.00;6.90;97720.00;;;;5037928;28;20964;-77
2023/01/25 05:44:45;;;;;;;10.23;7.13;;;7.10;72.00;6.90;97719.00;;;;5039694;28;20205;-77
2023/01/25 05:47:14;;;;;;;14.10;7.17;;;7.10;72.00;6.80;97718.00;;;;5044237;28;20604;-77
2023/01/25 05:49:44;;;;;;;12.30;7.33;;;7.10;72.00;6.80;97707.00;;;;5037552;28;20258;-78
2023/01/25 05:52:14;;;;;;;13.87;7.27;;;7.10;72.00;6.80;97703.00;;;;5045555;28;20215;-76
2023/01/25 05:54:41;;;;;;;13.90;7.47;;;7.10;71.90;6.80;97705.00;;;;5046163;28;20204;-79
2023/01/25 05:57:10;;;;;;;12.97;8.10;;;7.10;71.90;6.80;97710.00;;;;5049893;28;20243;-78
2023/01/25 05:59:37;;;;;;;12.33;7.37;;;7.10;72.00;6.80;97707.00;;;;5054401;28;20615;-79
2023/01/25 06:02:07;;;;;;;13.63;7.47;;;7.10;72.00;6.80;97714.00;;;;5052657;28;20242;-78
2023/01/25 06:04:34;;;;;;;19.27;8.07;;;7.10;72.20;6.80;97703.00;;;;5053567;28;20258;-78
2023/01/25 06:07:01;;;;;;;12.60;8.37;;;7.10;72.10;6.80;97705.00;;;;5052891;28;20248;-79
2023/01/25 06:09:31;;;;;;;12.93;8.03;;;7.10;72.10;6.80;97700.00;;;;5053445;28;20237;-78
2023/01/25 06:11:58;;;;;;;15.43;8.77;;;7.10;72.10;6.80;97702.00;;;;5046511;28;20274;-78
2023/01/25 06:14:29;;;;;;;13.57;8.53;;;7.10;72.10;6.80;97702.00;;;;5054487;28;20223;-80
2023/01/25 06:16:56;;;;;;;12.83;7.73;;;7.10;72.10;6.80;97695.00;;;;5051459;28;20657;-79
2023/01/25 06:19:23;;;;;;;13.60;8.17;;;7.00;72.10;6.80;97687.00;;;;5052564;28;20216;-79
2023/01/25 06:21:51;;;;;;;13.60;8.23;;;7.10;72.20;6.80;97688.00;;;;5046765;28;20225;-79
2023/01/25 06:24:19;;;;;;;17.30;8.50;;;7.00;72.20;6.80;97687.00;;;;5056723;28;20767;-79
2023/01/25 06:26:52;;;;;;;13.90;8.70;;;7.00;72.00;6.80;97688.00;;;;5052721;28;20255;-78
2023/01/25 06:29:30;;;;;;;13.20;8.27;;;7.00;72.00;6.80;97689.00;;;;5050038;28;20220;-77
2023/01/25 06:31:57;;;;;;;14.43;8.13;;;7.00;72.00;6.70;97684.00;;;;5051782;28;20216;-79
2023/01/25 06:34:26;;;;;;;12.17;7.47;;;7.00;72.00;6.70;97678.00;;;;5050463;28;20236;-79
2023/01/25 06:36:53;;;;;;;12.67;7.67;;;7.00;71.90;6.70;97680.00;;;;5048544;28;20211;-77
2023/01/25 06:39:23;;;;;;;11.83;7.90;;;7.00;71.70;6.70;97671.00;;;;5048904;28;20275;-79
2023/01/25 06:41:56;;;;;;;13.13;7.40;;;7.00;71.70;6.60;97674.00;;;;5050352;28;20217;-79
2023/01/25 06:44:23;;;;;;;20.20;7.23;;;7.00;71.60;6.60;97666.00;;;;5048162;28;20671;-77
2023/01/25 06:46:52;;;;;;;18.47;7.20;;;6.90;71.50;6.60;97673.00;;;;5045532;28;20224;-79
2023/01/25 06:49:19;;;;;;;11.17;7.30;;;6.90;71.60;6.50;97676.00;;;;5051308;28;20221;-78
2023/01/25 06:51:46;;;;;;;10.53;6.97;;;6.90;71.70;6.60;97673.00;;;;5047958;28;20244;-78
2023/01/25 06:54:15;;;;;;;23.17;8.60;;;6.90;72.00;6.60;97668.00;;;;5051431;28;20201;-76
2023/01/25 06:56:42;;;;;;;13.10;8.40;;;6.90;72.10;6.60;97669.00;;;;5053730;28;20334;-79
2023/01/25 06:59:10;;;;;;;12.50;7.57;;;6.90;72.30;6.60;97673.00;;;;5049541;28;20208;-77
2023/01/25 07:01:37;;;;;;;12.03;7.40;;;6.90;72.30;6.60;97666.00;;;;5046603;28;20252;-79
2023/01/25 07:04:05;;;;;;;16.57;7.07;;;6.90;72.40;6.70;97669.00;;;;5052106;28;20542;-78
2023/01/25 07:06:33;;;;;;;16.20;7.53;;;6.90;72.60;6.70;97663.00;;;;5049474;28;20243;-81
2023/01/25 07:09:05;;;;;;;23.83;7.93;;;6.90;72.60;6.70;97657.00;;;;5035009;28;20664;-82
2023/01/25 07:11:33;;;;;;;11.13;7.17;;;6.90;72.70;6.80;97662.00;;;;5057056;28;20286;-81
2023/01/25 07:14:00;;;;;;;12.13;7.53;;;6.90;72.50;6.80;97658.00;;;;5059553;28;20239;-81
2023/01/25 07:16:35;;;;;;;15.17;8.20;;;7.00;72.50;6.90;97663.00;;;;5049936;28;20248;-81
2023/01/25 07:19:05;;;;;;;33.97;9.37;;;7.00;72.60;7.00;97671.00;;;;5041573;28;20200;-81
2023/01/25 07:21:33;;;;;;;23.60;8.07;;;7.00;72.70;7.00;97671.00;;;;5057733;28;20209;-82
2023/01/25 07:24:02;;;;;;;12.67;7.67;;;7.00;72.80;7.00;97664.00;;;;5058127;28;20188;-81
2023/01/25 07:26:30;;;;;;;14.00;7.73;;;7.00;72.70;7.10;97666.00;;;;5054283;28;20668;-81
2023/01/25 07:28:59;;;;;;;13.70;7.80;;;7.10;72.70;7.10;97662.00;;;;5058051;28;20197;-80
2023/01/25 07:31:27;;;;;;;13.23;7.67;;;7.10;73.50;7.10;97671.00;;;;5056169;28;20217;-82
2023/01/25 07:34:01;;;;;;;13.80;7.57;;;7.10;72.60;7.10;97666.00;;;;5057220;28;20607;-80
2023/01/25 07:36:31;;;;;;;22.77;8.53;;;7.10;73.20;7.10;97665.00;;;;5056010;28;20231;-81
2023/01/25 07:38:59;;;;;;;13.30;7.47;;;7.20;72.60;7.20;97673.00;;;;5055611;28;20193;-82
2023/01/25 07:41:27;;;;;;;20.17;7.83;;;7.20;72.60;7.20;97672.00;;;;5055902;28;20293;-81
2023/01/25 07:43:55;;;;;;;12.77;7.77;;;7.20;72.50;7.20;97672.00;;;;5055705;28;20231;-81
2023/01/25 07:46:22;;;;;;;14.60;8.30;;;7.20;72.60;7.20;97673.00;;;;5055889;28;20212;-80
2023/01/25 07:48:52;;;;;;;13.63;7.70;;;7.20;72.30;7.20;97677.00;;;;5056804;28;20215;-80
2023/01/25 07:51:26;;;;;;;12.83;8.33;;;7.20;72.10;7.10;97674.00;;;;5058492;28;20278;-81
2023/01/25 07:53:57;;;;;;;19.70;7.73;;;7.20;72.00;7.10;97664.00;;;;5059533;28;20201;-81
2023/01/25 07:56:27;;;;;;;10.77;7.07;;;7.20;71.80;7.00;97671.00;;;;5063658;28;20677;-81
2023/01/25 07:59:01;;;;;;;14.13;8.70;;;7.30;71.90;7.00;97673.00;;;;5062351;28;20565;-81
2023/01/25 08:01:33;;;;;;;28.27;8.47;;;7.20;71.60;7.00;97668.00;;;;5048692;28;20245;-80
2023/01/25 08:04:02;;;;;;;11.90;7.53;;;7.20;71.70;7.00;97661.00;;;;5039220;28;20228;-81
2023/01/25 08:06:34;;;;;;;14.77;7.93;;;7.20;71.80;7.10;97667.00;;;;5042099;28;20217;-81
2023/01/25 08:09:06;;;;;;;14.47;7.97;;;7.20;71.70;7.00;97664.00;;;;5042277;28;20619;-82
2023/01/25 08:11:34;;;;;;;18.87;8.77;;;7.20;71.50;7.00;97672.00;;;;5050647;28;20925;-81
2023/01/25 08:14:07;;;;;;;15.07;8.43;;;7.20;71.60;7.00;97674.00;;;;5048778;28;20205;-82
2023/01/25 08:16:34;;;;;;;13.20;8.47;;;7.10;71.50;7.00;97665.00;;;;5053876;28;20238;-82
2023/01/25 08:19:03;;;;;;;18.13;8.80;;;7.10;71.50;7.00;97671.00;;;;5061125;28;20232;-80
2023/01/25 08:21:33;;;;;;;20.50;9.10;;;7.10;71.50;7.00;97666.00;;;;5058694;28;20278;-79
2023/01/25 08:24:04;;;;;;;14.57;8.93;;;7.10;71.70;7.00;97662.00;;;;5059054;28;20228;-80
2023/01/25 08:26:32;;;;;;;15.80;9.77;;;7.10;71.70;7.00;97661.00;;;;5058412;28;20266;-81
2023/01/25 08:28:59;;;;;;;15.87;9.97;;;7.10;71.70;7.00;97655.00;;;;5055714;28;20657;-80
2023/01/25 08:31:29;;;;;;;13.63;8.80;;;7.10;71.60;7.00;97661.00;;;;5056199;28;20276;-79
2023/01/25 08:33:57;;;;;;;15.37;8.80;;;7.00;71.70;6.90;97658.00;;;;5058136;28;20721;-80
2023/01/25 08:36:26;;;;;;;14.37;9.03;;;7.00;71.80;7.00;97654.00;;;;5060054;28;20235;-80
2023/01/25 08:38:56;;;;;;;14.33;8.77;;;7.00;71.90;7.00;97655.00;;;;5039427;28;20263;-81
2023/01/25 08:41:26;;;;;;;17.53;9.70;;;7.00;71.90;7.00;97658.00;;;;5055408;28;20212;-80
2023/01/25 08:44:05;;;;;;;13.60;8.73;;;7.10;72.10;7.00;97652.00;;;;5060118;28;20220;-80
2023/01/25 08:46:34;;;;;;;14.67;8.70;;;7.10;72.10;7.00;97657.00;;;;5061118;28;20211;-82
2023/01/25 08:49:03;;;;;;;13.80;8.70;;;7.00;72.00;7.00;97647.00;;;;5062037;28;20238;-81
2023/01/25 08:51:32;;;;;;;14.23;8.40;;;7.10;72.10;7.00;97650.00;;;;5061565;28;20248;-80
2023/01/25 08:54:12;;;;;;;15.93;8.43;;;7.10;72.30;7.00;97650.00;;;;5061198;28;20567;-81
2023/01/25 08:56:43;;;;;;;23.67;8.60;;;7.10;72.30;7.00;97645.00;;;;5050150;28;20212;-79
2023/01/25 08:59:13;;;;;;;17.47;8.83;;;7.10;72.40;7.10;97640.00;;;;5048848;28;20655;-81
2023/01/25 09:01:40;;;;;;;17.23;7.90;;;7.10;72.50;7.10;97634.00;;;;5061343;28;20235;-81
2023/01/25 09:04:07;;;;;;;19.37;8.73;;;7.10;72.40;7.10;97644.00;;;;5055012;28;20201;-81
2023/01/25 09:06:34;;;;;;;15.67;8.80;;;7.20;72.50;7.10;97641.00;;;;5041786;28;20244;-81
2023/01/25 09:09:03;;;;;;;17.93;8.33;;;7.20;72.30;7.10;97641.00;;;;5047653;28;20198;-81
2023/01/25 09:11:33;;;;;;;17.83;8.83;;;7.20;72.10;7.10;97634.00;;;;5048600;28;20312;-81
2023/01/25 09:14:02;;;;;;;14.43;8.47;;;7.20;72.10;7.10;97623.00;;;;5090450;22;20224;-89
2023/01/25 09:16:29;;;;;;;17.50;9.00;;;7.20;72.20;7.10;97631.00;;;;5066770;28;20662;-88
2023/01/25 09:18:58;;;;;;;15.93;8.97;;;7.20;72.20;7.20;97630.00;;;;5071936;28;20208;-87
2023/01/25 09:21:25;;;;;;;13.20;7.23;;;7.20;72.20;7.20;97625.00;;;;5068882;28;20299;-88
2023/01/25 09:23:54;;;;;;;20.13;7.93;;;7.20;72.30;7.20;97629.00;;;;5063233;28;20232;-87
2023/01/25 09:26:21;;;;;;;12.63;7.40;;;7.30;72.30;7.20;97626.00;;;;5054427;28;20273;-88
2023/01/25 09:28:51;;;;;;;12.27;7.57;;;7.30;72.30;7.30;97626.00;;;;5063087;28;20755;-88
2023/01/25 09:31:21;;;;;;;14.60;7.67;;;7.30;72.20;7.30;97619.00;;;;5062601;28;20251;-88
2023/01/25 09:33:50;;;;;;;12.87;8.07;;;7.40;72.10;7.30;97627.00;;;;5073318;28;20234;-89
2023/01/25 09:36:18;;;;;;;15.47;8.50;;;7.30;72.00;7.30;97629.00;;;;5059646;28;20216;-88
2023/01/25 09:38:45;;;;;;;13.97;8.20;;;7.30;71.80;7.30;97630.00;;;;5059121;28;20846;-88
2023/01/25 09:41:30;;;;;;;14.83;8.60;;;7.30;71.80;7.30;97631.00;;;;5089630;28;20758;-88
2023/01/25 09:44:33;;;;;;;17.03;8.47;;;7.30;71.70;7.30;97628.00;;;;5087118;28;20219;-88
2023/01/25 09:47:13;;;;;;;12.57;7.63;;;7.30;71.90;7.40;97626.00;;;;5067581;28;20212;-89
2023/01/25 09:50:07;;;;;;;18.13;8.13;;;7.40;71.90;7.30;97627.00;;;;5059427;28;20242;-88
2023/01/25 09:53:16;;;;;;;14.27;7.97;;;7.40;72.00;7.40;97624.00;;;;5056069;28;20764;-88
2023/01/25 09:55:52;;;;;;;13.83;7.43;;;7.40;72.10;7.40;97629.00;;;;5067720;28;20249;-88
2023/01/25 09:58:25;;;;;;;14.30;8.67;;;7.40;72.00;7.40;97624.00;;;;5063092;28;20278;-88
2023/01/25 10:01:05;;;;;;;21.53;8.17;;;7.40;72.00;7.40;97623.00;;;;5069303;28;20655;-89
2023/01/25 10:03:46;;;;;;;16.53;9.07;;;7.50;71.90;7.40;97619.00;;;;5062812;28;20216;-88
2023/01/25 10:06:16;;;;;;;14.23;8.27;;;7.40;71.80;7.40;97623.00;;;;5059756;28;20283;-88
2023/01/25 10:08:57;;;;;;;17.10;9.20;;;7.50;71.90;7.40;97618.00;;;;5071895;28;20257;-88
2023/01/25 10:11:28;;;;;;;17.17;9.63;;;7.50;72.60;7.40;97610.00;;;;5066202;28;20211;-88
2023/01/25 10:13:57;;;;;;;14.37;8.67;;;7.50;71.70;7.40;97611.00;;;;5062719;28;20207;-88
2023/01/25 10:16:30;;;;;;;14.87;8.73;;;7.50;71.70;7.40;97604.00;;;;5065796;28;20198;-88
2023/01/25 10:19:13;;;;;;;15.40;7.97;;;7.50;71.70;7.50;97599.00;;;;5058755;28;20564;-88
2023/01/25 10:21:44;;;;;;;13.73;8.20;;;7.40;71.70;7.50;97601.00;;;;5063469;28;20247;-88
2023/01/25 10:24:51;;;;;;;14.50;8.47;;;7.50;71.70;7.40;97594.00;;;;5074648;28;20213;-88
2023/01/25 10:27:37;;;;;;;13.70;9.17;;;7.50;71.50;7.50;97592.00;;;;5060977;28;20229;-87
2023/01/25 10:30:24;;;;;;;13.27;8.10;;;7.50;71.50;7.50;97587.00;;;;5069664;28;20188;-89
2023/01/25 10:32:56;;;;;;;14.70;8.37;;;7.50;71.60;7.50;97586.00;;;;5070111;28;20230;-89
2023/01/25 10:35:30;;;;;;;21.37;8.83;;;7.50;71.40;7.50;97579.00;;;;5073141;28;20274;-88
2023/01/25 10:38:04;;;;;;;17.17;9.93;;;7.50;71.30;7.50;97576.00;;;;5059706;28;20596;-88
2023/01/25 10:40:41;;;;;;;15.03;8.83;;;7.50;71.20;7.50;97570.00;;;;5060411;28;20232;-89
2023/01/25 10:43:16;;;;;;;22.50;9.87;;;7.50;71.30;7.50;97577.00;;;;5072522;28;20223;-88
2023/01/25 10:45:44;;;;;;;17.20;10.10;;;7.50;71.40;7.50;97564.00;;;;5071984;28;20226;-89
2023/01/25 10:48:19;;;;;;;16.40;9.50;;;7.50;71.40;7.50;97558.00;;;;5073067;28;20603;-88
2023/01/25 10:50:51;;;;;;;16.60;9.93;;;7.60;71.40;7.50;97564.00;;;;5073106;28;20760;-89
2023/01/25 10:53:27;;;;;;;17.13;9.17;;;7.50;71.40;7.50;97552.00;;;;5060526;28;20246;-89
2023/01/25 10:56:22;;;;;;;18.60;10.03;;;7.50;71.50;7.50;97549.00;;;;5057088;28;20234;-89
2023/01/25 10:58:53;;;;;;;17.93;9.47;;;7.50;71.60;7.50;97543.00;;;;5071094;28;20227;-89
2023/01/25 11:01:31;;;;;;;16.23;8.97;;;7.50;71.60;7.50;97540.00;;;;5073073;28;20711;-88
2023/01/25 11:04:00;;;;;;;14.93;8.20;;;7.60;71.90;7.50;97537.00;;;;5060524;28;20275;-89
2023/01/25 11:06:35;;;;;;;14.47;8.47;;;7.60;71.90;7.50;97537.00;;;;5073603;28;20228;-89
2023/01/25 11:09:32;;;;;;;16.47;8.97;;;7.50;71.70;7.60;97534.00;;;;5069753;28;20709;-88
2023/01/25 11:12:02;;;;;;;19.13;9.40;;;7.60;71.70;7.60;97531.00;;;;5072202;28;20227;-88
2023/01/25 11:14:32;;;;;;;14.80;9.43;;;7.60;71.80;7.60;97529.00;;;;5061440;28;20278;-88
2023/01/25 11:17:03;;;;;;;14.80;9.10;;;7.60;71.70;7.60;97523.00;;;;5055959;28;20201;-89
2023/01/25 11:19:35;;;;;;;31.67;9.40;;;7.60;71.80;7.60;97517.00;;;;5065772;28;20238;-88
2023/01/25 11:22:05;;;;;;;15.77;8.97;;;7.70;72.00;7.60;97514.00;;;;5063110;28;20221;-88
2023/01/25 11:24:35;;;;;;;14.07;8.10;;;7.60;72.00;7.60;97514.00;;;;5051758;28;20205;-89